createdAt,value
2019-03-21T00:01:58.297Z,50.7
2019-03-21T00:07:03.595Z,50.6
2019-03-21T00:12:08.824Z,50.5
2019-03-21T00:17:14.180Z,50.6
2019-03-21T00:22:19.255Z,50.6
2019-03-21T00:27:24.988Z,51
2019-03-21T00:32:30.745Z,51
2019-03-21T00:37:35.877Z,51.1
2019-03-21T00:42:39.423Z,51.1
2019-03-21T00:47:44.988Z,51.3
2019-03-21T00:52:50.035Z,51.5
2019-03-21T00:57:55.277Z,51.8
2019-03-21T01:03:00.344Z,52
2019-03-21T01:08:05.652Z,52.1
2019-03-21T01:13:11.329Z,52.5
2019-03-21T01:18:16.696Z,52.8
2019-03-21T01:23:21.836Z,53.1
2019-03-21T01:28:27.499Z,53.7
2019-03-21T01:33:32.941Z,53.7
2019-03-21T01:38:38.909Z,53.9
2019-03-21T01:43:44.467Z,54.1
2019-03-21T01:48:49.570Z,54.2
2019-03-21T01:53:54.629Z,54.4
2019-03-21T01:58:58.347Z,54.7
2019-03-21T02:04:03.937Z,54.6
2019-03-21T02:09:09.272Z,54.6
2019-03-21T02:14:12.974Z,54.6
2019-03-21T02:19:18.117Z,54.4
2019-03-21T02:24:21.837Z,54.3
2019-03-21T02:29:27.928Z,54.7
2019-03-21T02:34:33.296Z,54.6
2019-03-21T02:39:38.657Z,54.6
2019-03-21T02:44:44.408Z,54.9
2019-03-21T02:49:49.641Z,54.9
2019-03-21T02:54:54.840Z,54.9
2019-03-21T02:59:59.984Z,54.6
2019-03-21T03:05:05.763Z,55.3
2019-03-21T03:10:11.427Z,55.3
2019-03-21T03:15:25.724Z,55.5
2019-03-21T03:20:20.949Z,55.5
2019-03-21T03:25:26.010Z,55.4
2019-03-21T03:30:31.434Z,55.4
2019-03-21T03:35:36.937Z,55.6
2019-03-21T03:40:42.119Z,55.6
2019-03-21T03:45:47.297Z,56.2
2019-03-21T03:50:51.139Z,56.3
2019-03-21T03:55:56.249Z,56.5
2019-03-21T04:01:00.297Z,57.1
2019-03-21T04:06:05.346Z,56.8
2019-03-21T04:11:10.891Z,57.5
2019-03-21T04:21:20.058Z,58
2019-03-21T04:26:25.364Z,58.5
2019-03-21T04:31:30.976Z,59
2019-03-21T04:36:36.120Z,58.8
2019-03-21T04:41:41.492Z,59.3
2019-03-21T04:46:46.677Z,59.4
2019-03-21T04:51:52.006Z,58.9
2019-03-21T04:56:55.892Z,58.7
2019-03-21T05:02:01.126Z,59
2019-03-21T05:07:06.142Z,59.8
2019-03-21T05:12:11.518Z,60.3
2019-03-21T05:17:16.626Z,60.5
2019-03-21T05:22:21.823Z,59.9
2019-03-21T05:27:26.964Z,59.2
2019-03-21T05:32:32.179Z,58.6
2019-03-21T05:37:37.383Z,57.9
2019-03-21T05:42:42.849Z,57
2019-03-21T05:47:48.478Z,55.5
2019-03-21T05:52:53.614Z,55.5
2019-03-21T05:57:58.656Z,53.8
2019-03-21T06:03:03.920Z,52.7
2019-03-21T06:08:09.258Z,51.6
2019-03-21T06:13:14.652Z,50.9
2019-03-21T06:18:19.840Z,50.3
2019-03-21T06:23:25.182Z,48.8
2019-03-21T06:28:30.408Z,48.3
2019-03-21T06:33:35.755Z,46.7
2019-03-21T06:38:41.125Z,46.3
2019-03-21T06:43:46.458Z,45.1
2019-03-21T06:48:51.547Z,44.9
2019-03-21T06:53:57.077Z,42.4
2019-03-21T06:59:02.176Z,41.9
2019-03-21T07:04:10.101Z,41.2
2019-03-21T07:09:15.113Z,41.1
2019-03-21T07:14:20.817Z,38.4
2019-03-21T07:19:26.068Z,38.3
2019-03-21T07:24:31.561Z,37.7
2019-03-21T07:29:36.706Z,35.6
2019-03-21T07:34:40.830Z,33.7
2019-03-21T07:39:45.882Z,31.1
2019-03-21T07:44:51.222Z,29
2019-03-21T07:49:56.344Z,27
2019-03-21T07:55:02.471Z,21.5
2019-03-21T08:00:07.587Z,21.4
2019-03-21T08:05:13.418Z,19.2
2019-03-21T08:10:20.617Z,18
2019-03-21T08:15:26.688Z,17.6
2019-03-21T08:20:32.202Z,17.2
2019-03-21T08:25:37.534Z,16.6
2019-03-21T08:30:42.605Z,16
2019-03-21T08:35:48.338Z,15.4
2019-03-21T08:40:53.626Z,15.4
2019-03-21T08:45:58.839Z,15.4
2019-03-21T08:51:11.172Z,16.1
2019-03-21T08:56:05.586Z,16.1
2019-03-21T09:01:10.672Z,16.5
2019-03-21T09:06:16.000Z,17.3
2019-03-21T09:11:21.142Z,17.7
2019-03-21T09:16:25.204Z,17.4
2019-03-21T09:21:30.666Z,17.1
2019-03-21T09:26:36.226Z,17
2019-03-21T09:36:45.734Z,17.3
2019-03-21T09:41:51.384Z,17
2019-03-21T09:46:58.237Z,16.2
2019-03-21T09:52:03.478Z,16.7
2019-03-21T09:57:08.840Z,16.3
2019-03-21T10:02:14.057Z,16.9
2019-03-21T10:07:19.305Z,16.5
2019-03-21T10:12:24.316Z,16.9
2019-03-21T10:17:29.818Z,16.1
2019-03-21T10:22:34.962Z,16.1
2019-03-21T10:27:40.073Z,15.9
2019-03-21T10:32:45.778Z,15.4
2019-03-21T10:37:50.851Z,15.3
2019-03-21T10:42:55.925Z,14.8
2019-03-21T10:48:01.159Z,15.8
2019-03-21T10:53:06.449Z,15.8
2019-03-21T10:58:11.600Z,17
2019-03-21T11:03:16.862Z,15.8
2019-03-21T11:08:20.683Z,15.6
2019-03-21T11:13:25.922Z,15.2
2019-03-21T11:18:38.961Z,16.5
2019-03-21T11:23:35.323Z,16.4
2019-03-21T11:28:40.464Z,15.1
2019-03-21T11:33:45.657Z,14.2
2019-03-21T11:38:51.202Z,14.6
2019-03-21T11:43:56.380Z,15.2
2019-03-21T11:49:01.742Z,15.7
2019-03-21T11:54:07.244Z,15.5
2019-03-21T11:59:12.386Z,15.2
2019-03-21T12:04:17.342Z,15.4
2019-03-21T12:09:21.852Z,14.7
2019-03-21T12:14:27.006Z,15.3
2019-03-21T12:24:35.566Z,14.7
2019-03-21T12:29:40.778Z,13.9
2019-03-21T12:34:46.312Z,13.3
2019-03-21T12:39:51.494Z,13.3
2019-03-21T13:00:06.392Z,14.3
2019-03-21T13:05:11.715Z,15
2019-03-21T13:10:16.921Z,14.8
2019-03-21T13:15:32.395Z,17.5
2019-03-21T13:20:27.804Z,17.6
2019-03-21T13:25:32.832Z,18.4
2019-03-21T13:30:38.225Z,19.6
2019-03-21T13:35:44.078Z,21.5
2019-03-21T13:40:49.560Z,22.3
2019-03-21T13:45:54.933Z,22.2
2019-03-21T13:51:00.039Z,23.7
2019-03-21T13:56:05.485Z,24.6
2019-03-21T14:01:10.690Z,24
2019-03-21T14:06:16.363Z,25.5
2019-03-21T14:11:21.938Z,26.6
2019-03-21T14:16:27.696Z,26.2
2019-03-21T14:21:32.849Z,26.2
2019-03-21T14:26:38.006Z,25.5
2019-03-21T14:31:43.314Z,26.1
2019-03-21T14:36:48.882Z,26.6
2019-03-21T14:41:54.059Z,26.6
2019-03-21T14:46:59.712Z,27
2019-03-21T14:52:05.551Z,26.9
2019-03-21T14:57:11.205Z,27
2019-03-21T15:02:16.255Z,26.9
2019-03-21T15:07:21.370Z,27.5
2019-03-21T15:12:28.588Z,27.8
2019-03-21T15:17:35.323Z,27.5
2019-03-21T15:22:41.090Z,27.4
2019-03-21T15:27:46.500Z,27.1
2019-03-21T15:32:51.504Z,28.3
2019-03-21T15:37:57.194Z,28.5
2019-03-21T15:43:02.757Z,28.5
2019-03-21T15:48:08.229Z,28.3
2019-03-21T15:53:13.276Z,28.4
2019-03-21T15:58:17.449Z,29.1
2019-03-21T16:03:22.797Z,29.1
2019-03-21T16:08:29.971Z,29.3
2019-03-21T16:13:35.163Z,29.3
2019-03-21T16:18:39.150Z,29.6
2019-03-21T16:23:44.522Z,29.9
2019-03-21T16:28:49.947Z,30.3
2019-03-21T16:33:55.027Z,30.8
2019-03-21T16:39:00.324Z,31.6
2019-03-21T16:44:05.675Z,32.3
2019-03-21T16:49:13.175Z,32.3
2019-03-21T16:54:20.163Z,33
2019-03-21T16:59:25.404Z,33
2019-03-21T17:04:30.570Z,33.5
2019-03-21T17:09:38.771Z,34
2019-03-21T17:14:44.107Z,34.2
2019-03-21T17:19:49.392Z,34.7
2019-03-21T17:24:54.731Z,34.8
2019-03-21T17:29:59.912Z,35.1
2019-03-21T17:35:03.585Z,35.3
2019-03-21T17:40:09.543Z,36.3
2019-03-21T17:45:15.148Z,36.3
2019-03-21T17:50:20.481Z,36.3
2019-03-21T17:55:20.725Z,36.6
2019-03-21T18:00:24.683Z,36.9
2019-03-21T18:05:30.051Z,37.5
2019-03-21T18:10:35.429Z,37.7
2019-03-21T18:15:40.777Z,38
2019-03-21T18:20:45.871Z,38.1
2019-03-21T18:25:51.266Z,38.2
2019-03-21T18:30:57.169Z,38.6
2019-03-21T18:36:02.217Z,39.1
2019-03-21T18:41:08.050Z,39.2
2019-03-21T18:46:13.458Z,38.8
2019-03-21T18:51:19.103Z,39.1
2019-03-21T18:56:24.428Z,39.4
2019-03-21T19:01:29.844Z,39.9
2019-03-21T19:06:37.770Z,40.3
2019-03-21T19:11:43.499Z,40.1
2019-03-21T19:16:48.679Z,40.1
2019-03-21T19:21:56.482Z,40.2
2019-03-21T19:27:01.694Z,40.1
2019-03-21T19:32:07.361Z,40.6
2019-03-21T19:37:12.919Z,41.2
2019-03-21T19:42:18.382Z,40.8
2019-03-21T19:47:32.201Z,41.1
2019-03-21T19:52:27.498Z,41.1
2019-03-21T19:57:32.381Z,40.6
2019-03-21T20:02:40.903Z,41.1
2019-03-21T20:07:46.576Z,41.1
2019-03-21T20:12:47.072Z,41.2
2019-03-21T20:17:52.248Z,41.2
2019-03-21T20:22:57.846Z,41.7
2019-03-21T20:28:03.427Z,42
2019-03-21T20:33:08.647Z,42.2
2019-03-21T20:38:14.135Z,42.4
2019-03-21T20:43:21.270Z,42.7
2019-03-21T20:48:27.945Z,42.9
2019-03-21T20:53:33.586Z,42.9
2019-03-21T20:58:39.575Z,43.2
2019-03-21T21:03:44.783Z,43.3
2019-03-21T21:08:49.967Z,43.4
2019-03-21T21:13:55.174Z,44
2019-03-21T21:19:00.610Z,44.6
2019-03-21T21:24:06.104Z,44.6
2019-03-21T21:29:11.289Z,45
2019-03-21T21:34:16.509Z,45.7
2019-03-21T21:39:21.547Z,46.6
2019-03-21T21:44:26.906Z,47.2
2019-03-21T21:49:32.430Z,47.7
2019-03-21T21:54:37.899Z,48.3
2019-03-21T21:59:43.127Z,48.3
2019-03-21T22:04:48.536Z,48.6
2019-03-21T22:09:53.733Z,48.5
2019-03-21T22:14:59.257Z,48.2
2019-03-21T22:20:04.456Z,48.1
2019-03-21T22:25:08.466Z,48.2
2019-03-21T22:30:13.822Z,48.2
2019-03-21T22:35:19.335Z,48.4
2019-03-21T22:40:22.982Z,48.4
2019-03-21T22:45:28.501Z,48.2
2019-03-21T22:50:33.861Z,48.3
2019-03-21T22:55:39.352Z,48.2
2019-03-21T23:00:44.585Z,47.9
2019-03-21T23:05:48.273Z,47.8
2019-03-21T23:10:53.802Z,47.7
2019-03-21T23:15:59.441Z,47.5
2019-03-21T23:21:04.617Z,47.5
2019-03-21T23:26:10.152Z,47.8
2019-03-21T23:31:15.441Z,47.2
2019-03-21T23:36:19.246Z,47.2
2019-03-21T23:41:24.377Z,47.3
2019-03-21T23:46:30.194Z,47.3
2019-03-21T23:51:35.907Z,47.3
2019-03-21T23:56:41.409Z,47.3
